sensor_id;sensor_type;location;lat;lon;timestamp;temperature;humidity
7900;DHT22;3995;50.856;4.404;2023-05-10T00:00:38;17.90;67.10
7900;DHT22;3995;50.856;4.404;2023-05-10T00:03:05;18.00;67.10
7900;DHT22;3995;50.856;4.404;2023-05-10T00:05:32;17.90;67.10
7900;DHT22;3995;50.856;4.404;2023-05-10T00:08:00;17.90;67.00
7900;DHT22;3995;50.856;4.404;2023-05-10T00:10:28;17.90;67.00
7900;DHT22;3995;50.856;4.404;2023-05-10T00:12:55;17.90;67.00
7900;DHT22;3995;50.856;4.404;2023-05-10T00:15:23;17.90;66.90
7900;DHT22;3995;50.856;4.404;2023-05-10T00:17:52;17.90;66.90
7900;DHT22;3995;50.856;4.404;2023-05-10T00:20:20;17.90;67.00
7900;DHT22;3995;50.856;4.404;2023-05-10T00:22:47;17.90;67.00
7900;DHT22;3995;50.856;4.404;2023-05-10T00:25:15;17.90;67.00
7900;DHT22;3995;50.856;4.404;2023-05-10T00:27:42;17.90;67.00
7900;DHT22;3995;50.856;4.404;2023-05-10T00:30:10;17.90;67.00
7900;DHT22;3995;50.856;4.404;2023-05-10T00:32:38;17.90;67.00
7900;DHT22;3995;50.856;4.404;2023-05-10T00:35:08;17.90;67.00
7900;DHT22;3995;50.856;4.404;2023-05-10T00:37:35;17.90;67.10
7900;DHT22;3995;50.856;4.404;2023-05-10T00:40:02;17.90;67.00
7900;DHT22;3995;50.856;4.404;2023-05-10T00:42:30;17.90;67.00
7900;DHT22;3995;50.856;4.404;2023-05-10T00:44:58;17.90;67.00
7900;DHT22;3995;50.856;4.404;2023-05-10T00:47:25;17.90;67.00
7900;DHT22;3995;50.856;4.404;2023-05-10T00:49:52;17.90;67.10
7900;DHT22;3995;50.856;4.404;2023-05-10T00:52:22;17.90;67.00
7900;DHT22;3995;50.856;4.404;2023-05-10T00:54:51;17.90;67.10
7900;DHT22;3995;50.856;4.404;2023-05-10T00:57:19;17.90;67.10
7900;DHT22;3995;50.856;4.404;2023-05-10T00:59:46;17.90;67.10
7900;DHT22;3995;50.856;4.404;2023-05-10T01:02:20;17.90;67.00
7900;DHT22;3995;50.856;4.404;2023-05-10T01:04:49;17.90;67.00
7900;DHT22;3995;50.856;4.404;2023-05-10T01:07:17;17.90;67.10
7900;DHT22;3995;50.856;4.404;2023-05-10T01:09:47;17.90;67.20
7900;DHT22;3995;50.856;4.404;2023-05-10T01:12:14;17.90;67.20
7900;DHT22;3995;50.856;4.404;2023-05-10T01:14:42;17.90;67.30
7900;DHT22;3995;50.856;4.404;2023-05-10T01:17:11;17.90;67.40
7900;DHT22;3995;50.856;4.404;2023-05-10T01:19:39;17.90;67.20
7900;DHT22;3995;50.856;4.404;2023-05-10T01:22:18;17.90;67.20
7900;DHT22;3995;50.856;4.404;2023-05-10T01:25:11;17.90;67.20
7900;DHT22;3995;50.856;4.404;2023-05-10T01:28:00;17.90;67.30
7900;DHT22;3995;50.856;4.404;2023-05-10T01:30:58;17.80;67.30
7900;DHT22;3995;50.856;4.404;2023-05-10T01:33:33;17.90;67.30
7900;DHT22;3995;50.856;4.404;2023-05-10T01:36:05;17.80;67.50
7900;DHT22;3995;50.856;4.404;2023-05-10T01:38:42;17.80;67.50
7900;DHT22;3995;50.856;4.404;2023-05-10T01:41:16;17.90;67.50
7900;DHT22;3995;50.856;4.404;2023-05-10T01:43:51;17.90;67.40
7900;DHT22;3995;50.856;4.404;2023-05-10T01:46:24;17.90;67.40
7900;DHT22;3995;50.856;4.404;2023-05-10T01:48:56;17.80;67.30
7900;DHT22;3995;50.856;4.404;2023-05-10T01:51:26;17.90;67.30
7900;DHT22;3995;50.856;4.404;2023-05-10T01:53:59;17.80;67.30
7900;DHT22;3995;50.856;4.404;2023-05-10T01:56:30;17.80;67.30
7900;DHT22;3995;50.856;4.404;2023-05-10T01:59:00;17.80;67.50
7900;DHT22;3995;50.856;4.404;2023-05-10T02:01:33;17.80;67.50
7900;DHT22;3995;50.856;4.404;2023-05-10T02:06:34;17.80;67.30
7900;DHT22;3995;50.856;4.404;2023-05-10T02:09:03;17.80;67.30
7900;DHT22;3995;50.856;4.404;2023-05-10T02:11:31;17.80;67.30
7900;DHT22;3995;50.856;4.404;2023-05-10T02:14:00;17.80;67.30
7900;DHT22;3995;50.856;4.404;2023-05-10T02:16:28;17.80;67.30
7900;DHT22;3995;50.856;4.404;2023-05-10T02:18:58;17.80;67.30
7900;DHT22;3995;50.856;4.404;2023-05-10T02:21:29;17.80;67.30
7900;DHT22;3995;50.856;4.404;2023-05-10T02:23:59;17.80;67.30
7900;DHT22;3995;50.856;4.404;2023-05-10T02:26:28;17.80;67.40
7900;DHT22;3995;50.856;4.404;2023-05-10T02:28:57;17.80;67.50
7900;DHT22;3995;50.856;4.404;2023-05-10T02:31:25;17.80;67.50
7900;DHT22;3995;50.856;4.404;2023-05-10T02:33:54;17.80;67.40
7900;DHT22;3995;50.856;4.404;2023-05-10T02:36:22;17.80;67.50
7900;DHT22;3995;50.856;4.404;2023-05-10T02:38:52;17.80;67.60
7900;DHT22;3995;50.856;4.404;2023-05-10T02:41:20;17.80;67.30
7900;DHT22;3995;50.856;4.404;2023-05-10T02:43:50;17.80;67.10
7900;DHT22;3995;50.856;4.404;2023-05-10T02:46:18;17.80;67.10
7900;DHT22;3995;50.856;4.404;2023-05-10T02:48:45;17.80;67.70
7900;DHT22;3995;50.856;4.404;2023-05-10T02:51:15;17.80;67.10
7900;DHT22;3995;50.856;4.404;2023-05-10T02:53:46;17.80;67.10
7900;DHT22;3995;50.856;4.404;2023-05-10T02:56:23;17.80;67.30
7900;DHT22;3995;50.856;4.404;2023-05-10T02:58:52;17.80;67.20
7900;DHT22;3995;50.856;4.404;2023-05-10T03:01:19;17.80;67.20
7900;DHT22;3995;50.856;4.404;2023-05-10T03:03:46;17.80;67.20
7900;DHT22;3995;50.856;4.404;2023-05-10T03:06:14;17.80;67.10
7900;DHT22;3995;50.856;4.404;2023-05-10T03:08:42;17.70;66.90
7900;DHT22;3995;50.856;4.404;2023-05-10T03:11:28;17.70;66.90
7900;DHT22;3995;50.856;4.404;2023-05-10T03:14:08;17.80;67.00
7900;DHT22;3995;50.856;4.404;2023-05-10T03:16:42;17.80;67.00
7900;DHT22;3995;50.856;4.404;2023-05-10T03:19:17;17.70;66.90
7900;DHT22;3995;50.856;4.404;2023-05-10T03:21:51;17.70;66.80
7900;DHT22;3995;50.856;4.404;2023-05-10T03:24:22;17.70;66.80
7900;DHT22;3995;50.856;4.404;2023-05-10T03:26:53;17.70;66.80
7900;DHT22;3995;50.856;4.404;2023-05-10T03:29:22;17.70;66.80
7900;DHT22;3995;50.856;4.404;2023-05-10T03:31:50;17.60;66.90
7900;DHT22;3995;50.856;4.404;2023-05-10T03:34:23;17.60;66.90
7900;DHT22;3995;50.856;4.404;2023-05-10T03:36:51;17.60;66.90
7900;DHT22;3995;50.856;4.404;2023-05-10T03:39:18;17.60;66.90
7900;DHT22;3995;50.856;4.404;2023-05-10T03:41:47;17.60;66.90
7900;DHT22;3995;50.856;4.404;2023-05-10T03:44:16;17.60;66.90
7900;DHT22;3995;50.856;4.404;2023-05-10T03:46:43;17.60;67.10
7900;DHT22;3995;50.856;4.404;2023-05-10T03:49:11;17.60;67.20
7900;DHT22;3995;50.856;4.404;2023-05-10T03:51:39;17.60;67.20
7900;DHT22;3995;50.856;4.404;2023-05-10T03:54:06;17.60;67.30
7900;DHT22;3995;50.856;4.404;2023-05-10T03:56:34;17.60;67.40
7900;DHT22;3995;50.856;4.404;2023-05-10T03:59:03;17.60;67.30
7900;DHT22;3995;50.856;4.404;2023-05-10T04:01:34;17.60;67.30
7900;DHT22;3995;50.856;4.404;2023-05-10T04:04:02;17.60;67.40
7900;DHT22;3995;50.856;4.404;2023-05-10T04:06:29;17.60;67.50
7900;DHT22;3995;50.856;4.404;2023-05-10T04:08:57;17.80;67.40
7900;DHT22;3995;50.856;4.404;2023-05-10T04:11:25;17.70;67.40
7900;DHT22;3995;50.856;4.404;2023-05-10T04:13:53;17.70;67.50
7900;DHT22;3995;50.856;4.404;2023-05-10T04:16:22;17.70;67.70
7900;DHT22;3995;50.856;4.404;2023-05-10T04:18:51;17.70;67.80
7900;DHT22;3995;50.856;4.404;2023-05-10T04:21:18;17.70;67.90
7900;DHT22;3995;50.856;4.404;2023-05-10T04:23:46;17.70;68.00
7900;DHT22;3995;50.856;4.404;2023-05-10T04:26:13;17.70;68.00
7900;DHT22;3995;50.856;4.404;2023-05-10T04:28:41;17.70;68.00
7900;DHT22;3995;50.856;4.404;2023-05-10T04:31:09;17.70;68.00
7900;DHT22;3995;50.856;4.404;2023-05-10T04:33:37;17.70;67.80
7900;DHT22;3995;50.856;4.404;2023-05-10T04:36:06;17.70;67.80
7900;DHT22;3995;50.856;4.404;2023-05-10T04:38:34;17.70;67.60
7900;DHT22;3995;50.856;4.404;2023-05-10T04:41:04;17.70;67.60
7900;DHT22;3995;50.856;4.404;2023-05-10T04:43:32;17.70;67.70
7900;DHT22;3995;50.856;4.404;2023-05-10T04:45:59;17.70;67.80
7900;DHT22;3995;50.856;4.404;2023-05-10T04:48:27;17.70;67.70
7900;DHT22;3995;50.856;4.404;2023-05-10T04:50:54;17.70;67.80
7900;DHT22;3995;50.856;4.404;2023-05-10T04:53:23;17.70;67.90
7900;DHT22;3995;50.856;4.404;2023-05-10T04:55:50;17.70;67.90
7900;DHT22;3995;50.856;4.404;2023-05-10T04:58:17;17.70;68.00
7900;DHT22;3995;50.856;4.404;2023-05-10T05:00:45;17.70;68.00
7900;DHT22;3995;50.856;4.404;2023-05-10T05:03:12;17.70;68.00
7900;DHT22;3995;50.856;4.404;2023-05-10T05:05:40;17.70;67.90
7900;DHT22;3995;50.856;4.404;2023-05-10T05:08:08;17.70;67.90
7900;DHT22;3995;50.856;4.404;2023-05-10T05:10:37;17.70;67.80
7900;DHT22;3995;50.856;4.404;2023-05-10T05:13:04;17.80;67.80
7900;DHT22;3995;50.856;4.404;2023-05-10T05:15:31;17.70;67.70
7900;DHT22;3995;50.856;4.404;2023-05-10T05:17:59;17.70;67.80
7900;DHT22;3995;50.856;4.404;2023-05-10T05:20:27;17.80;67.80
7900;DHT22;3995;50.856;4.404;2023-05-10T05:22:54;17.80;67.70
7900;DHT22;3995;50.856;4.404;2023-05-10T05:25:22;17.80;67.80
7900;DHT22;3995;50.856;4.404;2023-05-10T05:27:51;17.80;67.70
7900;DHT22;3995;50.856;4.404;2023-05-10T05:30:19;17.80;67.70
7900;DHT22;3995;50.856;4.404;2023-05-10T05:32:47;17.80;67.70
7900;DHT22;3995;50.856;4.404;2023-05-10T05:35:15;17.80;67.70
7900;DHT22;3995;50.856;4.404;2023-05-10T05:37:43;17.80;67.50
7900;DHT22;3995;50.856;4.404;2023-05-10T05:40:12;17.80;67.50
7900;DHT22;3995;50.856;4.404;2023-05-10T05:42:40;17.80;67.50
7900;DHT22;3995;50.856;4.404;2023-05-10T05:45:10;17.80;67.50
7900;DHT22;3995;50.856;4.404;2023-05-10T05:47:39;17.80;67.30
7900;DHT22;3995;50.856;4.404;2023-05-10T05:50:07;17.70;67.20
7900;DHT22;3995;50.856;4.404;2023-05-10T05:52:35;17.70;67.20
7900;DHT22;3995;50.856;4.404;2023-05-10T05:55:03;17.70;67.30
7900;DHT22;3995;50.856;4.404;2023-05-10T05:57:32;17.70;67.30
7900;DHT22;3995;50.856;4.404;2023-05-10T06:00:00;17.70;67.10
7900;DHT22;3995;50.856;4.404;2023-05-10T06:02:30;17.70;67.00
7900;DHT22;3995;50.856;4.404;2023-05-10T06:04:58;17.70;67.00
7900;DHT22;3995;50.856;4.404;2023-05-10T06:07:28;17.70;66.90
7900;DHT22;3995;50.856;4.404;2023-05-10T06:09:57;17.70;66.80
7900;DHT22;3995;50.856;4.404;2023-05-10T06:12:25;17.70;67.00
7900;DHT22;3995;50.856;4.404;2023-05-10T06:14:52;17.70;67.00
7900;DHT22;3995;50.856;4.404;2023-05-10T06:17:20;17.70;67.00
7900;DHT22;3995;50.856;4.404;2023-05-10T06:19:50;17.60;66.90
7900;DHT22;3995;50.856;4.404;2023-05-10T06:22:18;17.60;66.90
7900;DHT22;3995;50.856;4.404;2023-05-10T06:24:45;17.60;66.90
7900;DHT22;3995;50.856;4.404;2023-05-10T06:27:12;17.60;66.80
7900;DHT22;3995;50.856;4.404;2023-05-10T06:29:40;17.60;66.80
7900;DHT22;3995;50.856;4.404;2023-05-10T06:32:07;17.60;66.80
7900;DHT22;3995;50.856;4.404;2023-05-10T06:34:34;17.60;66.70
7900;DHT22;3995;50.856;4.404;2023-05-10T06:37:04;17.60;66.50
7900;DHT22;3995;50.856;4.404;2023-05-10T06:39:31;17.60;66.50
7900;DHT22;3995;50.856;4.404;2023-05-10T06:41:59;17.60;66.60
7900;DHT22;3995;50.856;4.404;2023-05-10T06:44:28;17.60;66.70
7900;DHT22;3995;50.856;4.404;2023-05-10T06:46:56;17.60;66.70
7900;DHT22;3995;50.856;4.404;2023-05-10T06:49:23;17.60;66.40
7900;DHT22;3995;50.856;4.404;2023-05-10T06:51:51;17.60;66.30
7900;DHT22;3995;50.856;4.404;2023-05-10T06:54:20;17.60;66.30
7900;DHT22;3995;50.856;4.404;2023-05-10T06:56:48;17.60;66.10
7900;DHT22;3995;50.856;4.404;2023-05-10T06:59:16;17.50;66.10
7900;DHT22;3995;50.856;4.404;2023-05-10T07:01:45;17.50;66.10
7900;DHT22;3995;50.856;4.404;2023-05-10T07:04:12;17.50;66.00
7900;DHT22;3995;50.856;4.404;2023-05-10T07:06:39;17.50;66.00
7900;DHT22;3995;50.856;4.404;2023-05-10T07:09:07;17.50;66.00
7900;DHT22;3995;50.856;4.404;2023-05-10T07:11:36;17.50;66.10
7900;DHT22;3995;50.856;4.404;2023-05-10T07:14:04;17.50;66.10
7900;DHT22;3995;50.856;4.404;2023-05-10T07:16:32;17.50;66.20
7900;DHT22;3995;50.856;4.404;2023-05-10T07:19:00;17.50;66.20
7900;DHT22;3995;50.856;4.404;2023-05-10T07:21:28;17.50;66.10
7900;DHT22;3995;50.856;4.404;2023-05-10T07:23:55;17.50;66.20
7900;DHT22;3995;50.856;4.404;2023-05-10T07:26:23;17.50;66.20
7900;DHT22;3995;50.856;4.404;2023-05-10T07:28:52;17.50;66.00
7900;DHT22;3995;50.856;4.404;2023-05-10T07:31:19;17.50;65.90
7900;DHT22;3995;50.856;4.404;2023-05-10T07:33:46;17.50;65.90
7900;DHT22;3995;50.856;4.404;2023-05-10T07:36:13;17.50;65.80
7900;DHT22;3995;50.856;4.404;2023-05-10T07:38:41;17.50;65.80
7900;DHT22;3995;50.856;4.404;2023-05-10T07:41:09;17.50;65.70
7900;DHT22;3995;50.856;4.404;2023-05-10T07:43:37;17.50;65.60
7900;DHT22;3995;50.856;4.404;2023-05-10T07:46:06;17.50;65.70
7900;DHT22;3995;50.856;4.404;2023-05-10T07:48:36;17.50;65.70
7900;DHT22;3995;50.856;4.404;2023-05-10T07:51:03;17.40;65.80
7900;DHT22;3995;50.856;4.404;2023-05-10T07:53:32;17.40;65.70
7900;DHT22;3995;50.856;4.404;2023-05-10T07:55:59;17.40;65.60
7900;DHT22;3995;50.856;4.404;2023-05-10T07:58:46;17.40;65.50
7900;DHT22;3995;50.856;4.404;2023-05-10T08:01:15;17.40;65.70
7900;DHT22;3995;50.856;4.404;2023-05-10T08:03:42;17.40;65.60
7900;DHT22;3995;50.856;4.404;2023-05-10T08:06:09;17.40;65.60
7900;DHT22;3995;50.856;4.404;2023-05-10T08:08:37;17.40;65.60
7900;DHT22;3995;50.856;4.404;2023-05-10T08:11:05;17.40;65.50
7900;DHT22;3995;50.856;4.404;2023-05-10T08:13:33;17.40;65.60
7900;DHT22;3995;50.856;4.404;2023-05-10T08:16:00;17.40;65.40
7900;DHT22;3995;50.856;4.404;2023-05-10T08:18:30;17.40;65.40
7900;DHT22;3995;50.856;4.404;2023-05-10T08:20:58;17.40;65.40
7900;DHT22;3995;50.856;4.404;2023-05-10T08:23:26;17.40;65.40
7900;DHT22;3995;50.856;4.404;2023-05-10T08:25:54;17.40;65.40
7900;DHT22;3995;50.856;4.404;2023-05-10T08:28:22;17.40;65.30
7900;DHT22;3995;50.856;4.404;2023-05-10T08:30:50;17.40;65.40
7900;DHT22;3995;50.856;4.404;2023-05-10T08:33:18;17.50;65.30
7900;DHT22;3995;50.856;4.404;2023-05-10T08:35:48;17.50;65.90
7900;DHT22;3995;50.856;4.404;2023-05-10T08:38:15;17.50;65.20
7900;DHT22;3995;50.856;4.404;2023-05-10T08:40:44;17.50;65.40
7900;DHT22;3995;50.856;4.404;2023-05-10T08:43:12;17.50;65.30
7900;DHT22;3995;50.856;4.404;2023-05-10T08:45:42;17.50;65.10
7900;DHT22;3995;50.856;4.404;2023-05-10T08:48:11;17.50;65.00
7900;DHT22;3995;50.856;4.404;2023-05-10T08:50:40;17.50;64.90
7900;DHT22;3995;50.856;4.404;2023-05-10T08:53:12;17.50;65.00
7900;DHT22;3995;50.856;4.404;2023-05-10T08:55:40;17.50;65.00
7900;DHT22;3995;50.856;4.404;2023-05-10T08:58:09;17.50;65.70
7900;DHT22;3995;50.856;4.404;2023-05-10T09:00:37;17.50;65.20
7900;DHT22;3995;50.856;4.404;2023-05-10T09:03:05;17.60;65.20
7900;DHT22;3995;50.856;4.404;2023-05-10T09:05:32;17.60;65.10
7900;DHT22;3995;50.856;4.404;2023-05-10T09:08:00;17.60;65.10
7900;DHT22;3995;50.856;4.404;2023-05-10T09:10:30;17.60;65.10
7900;DHT22;3995;50.856;4.404;2023-05-10T09:12:58;17.60;65.10
7900;DHT22;3995;50.856;4.404;2023-05-10T09:15:25;17.60;65.00
7900;DHT22;3995;50.856;4.404;2023-05-10T09:17:54;17.60;64.80
7900;DHT22;3995;50.856;4.404;2023-05-10T09:20:24;17.60;64.70
7900;DHT22;3995;50.856;4.404;2023-05-10T09:22:51;17.60;65.00
7900;DHT22;3995;50.856;4.404;2023-05-10T09:25:19;17.60;65.20
7900;DHT22;3995;50.856;4.404;2023-05-10T09:27:49;17.60;65.40
7900;DHT22;3995;50.856;4.404;2023-05-10T09:30:22;17.60;65.60
7900;DHT22;3995;50.856;4.404;2023-05-10T09:32:50;17.60;65.70
7900;DHT22;3995;50.856;4.404;2023-05-10T09:35:20;17.60;65.70
7900;DHT22;3995;50.856;4.404;2023-05-10T09:37:50;17.60;65.70
7900;DHT22;3995;50.856;4.404;2023-05-10T09:40:19;17.60;65.70
7900;DHT22;3995;50.856;4.404;2023-05-10T09:42:56;17.60;65.90
7900;DHT22;3995;50.856;4.404;2023-05-10T09:45:24;17.60;65.90
7900;DHT22;3995;50.856;4.404;2023-05-10T09:47:52;17.60;66.10
7900;DHT22;3995;50.856;4.404;2023-05-10T09:50:20;17.60;66.00
7900;DHT22;3995;50.856;4.404;2023-05-10T09:52:49;17.60;65.80
7900;DHT22;3995;50.856;4.404;2023-05-10T09:55:18;17.60;65.80
7900;DHT22;3995;50.856;4.404;2023-05-10T09:57:46;17.60;66.00
7900;DHT22;3995;50.856;4.404;2023-05-10T10:00:19;17.60;66.10
7900;DHT22;3995;50.856;4.404;2023-05-10T10:02:48;17.60;66.00
7900;DHT22;3995;50.856;4.404;2023-05-10T10:05:22;17.60;65.90
7900;DHT22;3995;50.856;4.404;2023-05-10T10:07:56;17.60;65.80
7900;DHT22;3995;50.856;4.404;2023-05-10T10:10:24;17.60;65.90
7900;DHT22;3995;50.856;4.404;2023-05-10T10:12:52;17.60;66.00
7900;DHT22;3995;50.856;4.404;2023-05-10T10:15:22;17.60;66.00
7900;DHT22;3995;50.856;4.404;2023-05-10T10:17:50;17.60;65.80
7900;DHT22;3995;50.856;4.404;2023-05-10T10:20:19;17.60;65.70
7900;DHT22;3995;50.856;4.404;2023-05-10T10:22:48;17.60;65.70
7900;DHT22;3995;50.856;4.404;2023-05-10T10:25:17;17.60;65.80
7900;DHT22;3995;50.856;4.404;2023-05-10T10:27:54;17.60;66.20
7900;DHT22;3995;50.856;4.404;2023-05-10T10:30:30;17.60;66.50
7900;DHT22;3995;50.856;4.404;2023-05-10T10:33:18;17.60;66.50
7900;DHT22;3995;50.856;4.404;2023-05-10T10:35:52;17.70;66.30
7900;DHT22;3995;50.856;4.404;2023-05-10T10:38:20;17.60;66.40
7900;DHT22;3995;50.856;4.404;2023-05-10T10:40:48;17.60;66.50
7900;DHT22;3995;50.856;4.404;2023-05-10T10:43:30;17.60;66.50
7900;DHT22;3995;50.856;4.404;2023-05-10T10:46:17;17.70;66.60
7900;DHT22;3995;50.856;4.404;2023-05-10T10:48:49;17.70;66.40
7900;DHT22;3995;50.856;4.404;2023-05-10T10:51:17;17.70;66.60
7900;DHT22;3995;50.856;4.404;2023-05-10T10:53:44;17.70;66.60
7900;DHT22;3995;50.856;4.404;2023-05-10T10:56:15;17.70;66.40
7900;DHT22;3995;50.856;4.404;2023-05-10T10:58:49;17.70;66.40
7900;DHT22;3995;50.856;4.404;2023-05-10T11:01:21;17.80;66.40
7900;DHT22;3995;50.856;4.404;2023-05-10T11:04:18;17.80;66.40
7900;DHT22;3995;50.856;4.404;2023-05-10T11:06:46;17.80;66.20
7900;DHT22;3995;50.856;4.404;2023-05-10T11:09:13;17.80;66.50
7900;DHT22;3995;50.856;4.404;2023-05-10T11:11:51;17.80;66.40
7900;DHT22;3995;50.856;4.404;2023-05-10T11:14:21;17.80;66.30
7900;DHT22;3995;50.856;4.404;2023-05-10T11:16:50;17.80;66.30
7900;DHT22;3995;50.856;4.404;2023-05-10T11:19:18;17.80;66.50
7900;DHT22;3995;50.856;4.404;2023-05-10T11:21:48;17.80;66.70
7900;DHT22;3995;50.856;4.404;2023-05-10T11:24:17;17.90;66.70
7900;DHT22;3995;50.856;4.404;2023-05-10T11:26:45;17.90;66.80
7900;DHT22;3995;50.856;4.404;2023-05-10T11:29:16;17.90;66.70
7900;DHT22;3995;50.856;4.404;2023-05-10T11:31:45;17.90;66.70
7900;DHT22;3995;50.856;4.404;2023-05-10T11:34:23;17.90;66.60
7900;DHT22;3995;50.856;4.404;2023-05-10T11:36:51;18.00;66.50
7900;DHT22;3995;50.856;4.404;2023-05-10T11:39:19;17.90;66.30
7900;DHT22;3995;50.856;4.404;2023-05-10T11:41:49;18.00;66.40
7900;DHT22;3995;50.856;4.404;2023-05-10T11:44:17;18.00;66.40
7900;DHT22;3995;50.856;4.404;2023-05-10T11:46:45;18.10;66.60
7900;DHT22;3995;50.856;4.404;2023-05-10T11:49:15;18.10;66.60
7900;DHT22;3995;50.856;4.404;2023-05-10T11:51:42;18.10;66.60
7900;DHT22;3995;50.856;4.404;2023-05-10T11:54:11;18.20;66.50
7900;DHT22;3995;50.856;4.404;2023-05-10T11:56:39;18.20;66.30
7900;DHT22;3995;50.856;4.404;2023-05-10T11:59:07;18.20;66.20
7900;DHT22;3995;50.856;4.404;2023-05-10T12:01:34;18.20;65.90
7900;DHT22;3995;50.856;4.404;2023-05-10T12:04:04;18.20;65.50
7900;DHT22;3995;50.856;4.404;2023-05-10T12:06:39;18.20;65.20
7900;DHT22;3995;50.856;4.404;2023-05-10T12:09:08;18.20;65.40
7900;DHT22;3995;50.856;4.404;2023-05-10T12:11:37;18.20;65.80
7900;DHT22;3995;50.856;4.404;2023-05-10T12:14:05;18.20;65.80
7900;DHT22;3995;50.856;4.404;2023-05-10T12:16:33;18.20;65.50
7900;DHT22;3995;50.856;4.404;2023-05-10T12:19:01;18.20;65.70
7900;DHT22;3995;50.856;4.404;2023-05-10T12:21:29;18.20;65.70
7900;DHT22;3995;50.856;4.404;2023-05-10T12:24:03;18.20;65.60
7900;DHT22;3995;50.856;4.404;2023-05-10T12:26:31;18.30;65.50
7900;DHT22;3995;50.856;4.404;2023-05-10T12:29:12;18.30;65.30
7900;DHT22;3995;50.856;4.404;2023-05-10T12:31:54;18.40;65.00
7900;DHT22;3995;50.856;4.404;2023-05-10T12:34:25;18.40;65.10
7900;DHT22;3995;50.856;4.404;2023-05-10T12:36:53;18.40;65.10
7900;DHT22;3995;50.856;4.404;2023-05-10T12:39:23;18.50;65.00
7900;DHT22;3995;50.856;4.404;2023-05-10T12:41:51;18.50;64.90
7900;DHT22;3995;50.856;4.404;2023-05-10T12:44:18;18.50;64.80
7900;DHT22;3995;50.856;4.404;2023-05-10T12:46:46;18.60;64.70
7900;DHT22;3995;50.856;4.404;2023-05-10T12:49:13;18.60;64.30
7900;DHT22;3995;50.856;4.404;2023-05-10T12:51:40;18.60;64.10
7900;DHT22;3995;50.856;4.404;2023-05-10T12:54:08;18.60;64.10
7900;DHT22;3995;50.856;4.404;2023-05-10T12:56:37;18.60;64.20
7900;DHT22;3995;50.856;4.404;2023-05-10T12:59:06;18.70;64.40
7900;DHT22;3995;50.856;4.404;2023-05-10T13:01:34;18.70;64.20
7900;DHT22;3995;50.856;4.404;2023-05-10T13:04:01;18.70;63.90
7900;DHT22;3995;50.856;4.404;2023-05-10T13:06:29;18.70;63.80
7900;DHT22;3995;50.856;4.404;2023-05-10T13:08:57;18.70;63.40
7900;DHT22;3995;50.856;4.404;2023-05-10T13:11:25;18.70;63.10
7900;DHT22;3995;50.856;4.404;2023-05-10T13:13:54;18.70;63.10
7900;DHT22;3995;50.856;4.404;2023-05-10T13:16:21;18.70;63.20
7900;DHT22;3995;50.856;4.404;2023-05-10T13:18:49;18.70;63.30
7900;DHT22;3995;50.856;4.404;2023-05-10T13:21:17;18.80;63.10
7900;DHT22;3995;50.856;4.404;2023-05-10T13:23:45;18.80;63.00
7900;DHT22;3995;50.856;4.404;2023-05-10T13:26:12;18.80;62.90
7900;DHT22;3995;50.856;4.404;2023-05-10T13:28:39;18.80;62.70
7900;DHT22;3995;50.856;4.404;2023-05-10T13:31:08;18.80;62.60
7900;DHT22;3995;50.856;4.404;2023-05-10T13:33:35;18.90;62.40
7900;DHT22;3995;50.856;4.404;2023-05-10T13:36:03;18.90;62.40
7900;DHT22;3995;50.856;4.404;2023-05-10T13:38:31;18.90;62.40
7900;DHT22;3995;50.856;4.404;2023-05-10T13:40:58;18.90;61.70
7900;DHT22;3995;50.856;4.404;2023-05-10T13:43:26;18.90;61.40
7900;DHT22;3995;50.856;4.404;2023-05-10T13:45:53;18.90;61.60
7900;DHT22;3995;50.856;4.404;2023-05-10T13:48:23;18.90;62.00
7900;DHT22;3995;50.856;4.404;2023-05-10T13:50:50;18.90;61.80
7900;DHT22;3995;50.856;4.404;2023-05-10T13:53:17;18.90;61.40
7900;DHT22;3995;50.856;4.404;2023-05-10T13:55:45;18.90;61.00
7900;DHT22;3995;50.856;4.404;2023-05-10T13:58:12;18.90;60.80
7900;DHT22;3995;50.856;4.404;2023-05-10T14:00:39;18.90;60.70
7900;DHT22;3995;50.856;4.404;2023-05-10T14:03:06;18.90;60.60
7900;DHT22;3995;50.856;4.404;2023-05-10T14:05:38;18.90;60.80
7900;DHT22;3995;50.856;4.404;2023-05-10T14:08:05;18.90;61.10
7900;DHT22;3995;50.856;4.404;2023-05-10T14:10:35;18.90;61.10
7900;DHT22;3995;50.856;4.404;2023-05-10T14:13:02;18.90;61.20
7900;DHT22;3995;50.856;4.404;2023-05-10T14:15:30;18.90;61.20
7900;DHT22;3995;50.856;4.404;2023-05-10T14:17:57;18.90;60.80
7900;DHT22;3995;50.856;4.404;2023-05-10T14:20:25;18.90;60.50
7900;DHT22;3995;50.856;4.404;2023-05-10T14:22:56;18.90;60.60
7900;DHT22;3995;50.856;4.404;2023-05-10T14:25:24;18.90;60.60
7900;DHT22;3995;50.856;4.404;2023-05-10T14:27:52;18.90;60.90
7900;DHT22;3995;50.856;4.404;2023-05-10T14:30:20;18.90;60.80
7900;DHT22;3995;50.856;4.404;2023-05-10T14:32:47;18.90;60.80
7900;DHT22;3995;50.856;4.404;2023-05-10T14:35:15;18.90;60.80
7900;DHT22;3995;50.856;4.404;2023-05-10T14:37:42;18.90;60.90
7900;DHT22;3995;50.856;4.404;2023-05-10T14:40:12;18.90;60.90
7900;DHT22;3995;50.856;4.404;2023-05-10T14:42:41;18.90;60.80
7900;DHT22;3995;50.856;4.404;2023-05-10T14:45:09;18.90;61.00
7900;DHT22;3995;50.856;4.404;2023-05-10T14:47:37;18.90;61.10
7900;DHT22;3995;50.856;4.404;2023-05-10T14:50:06;18.90;61.00
7900;DHT22;3995;50.856;4.404;2023-05-10T14:52:33;18.90;61.00
7900;DHT22;3995;50.856;4.404;2023-05-10T14:55:01;18.90;61.20
7900;DHT22;3995;50.856;4.404;2023-05-10T14:57:30;18.90;61.40
7900;DHT22;3995;50.856;4.404;2023-05-10T14:59:58;18.90;61.60
7900;DHT22;3995;50.856;4.404;2023-05-10T15:02:26;18.90;61.60
7900;DHT22;3995;50.856;4.404;2023-05-10T15:04:53;18.90;61.40
7900;DHT22;3995;50.856;4.404;2023-05-10T15:07:21;18.80;61.30
7900;DHT22;3995;50.856;4.404;2023-05-10T15:09:49;18.80;62.00
7900;DHT22;3995;50.856;4.404;2023-05-10T15:12:17;18.80;61.80
7900;DHT22;3995;50.856;4.404;2023-05-10T15:14:45;18.80;61.90
7900;DHT22;3995;50.856;4.404;2023-05-10T15:17:14;18.80;61.90
7900;DHT22;3995;50.856;4.404;2023-05-10T15:19:41;18.70;62.00
7900;DHT22;3995;50.856;4.404;2023-05-10T15:22:09;18.70;62.20
7900;DHT22;3995;50.856;4.404;2023-05-10T15:24:37;18.70;61.10
7900;DHT22;3995;50.856;4.404;2023-05-10T15:27:04;18.70;60.00
7900;DHT22;3995;50.856;4.404;2023-05-10T15:29:31;18.70;59.30
7900;DHT22;3995;50.856;4.404;2023-05-10T15:32:02;18.60;58.00
7900;DHT22;3995;50.856;4.404;2023-05-10T15:34:29;18.60;57.50
7900;DHT22;3995;50.856;4.404;2023-05-10T15:36:57;18.60;57.30
7900;DHT22;3995;50.856;4.404;2023-05-10T15:39:24;18.60;57.20
7900;DHT22;3995;50.856;4.404;2023-05-10T15:41:52;18.60;57.20
7900;DHT22;3995;50.856;4.404;2023-05-10T15:44:19;18.60;57.10
7900;DHT22;3995;50.856;4.404;2023-05-10T15:46:47;18.60;56.80
7900;DHT22;3995;50.856;4.404;2023-05-10T15:49:16;18.60;56.90
7900;DHT22;3995;50.856;4.404;2023-05-10T15:51:43;18.60;57.10
7900;DHT22;3995;50.856;4.404;2023-05-10T15:54:11;18.60;57.20
7900;DHT22;3995;50.856;4.404;2023-05-10T15:56:38;18.60;57.50
7900;DHT22;3995;50.856;4.404;2023-05-10T15:59:07;18.70;57.70
7900;DHT22;3995;50.856;4.404;2023-05-10T16:01:35;18.70;57.80
7900;DHT22;3995;50.856;4.404;2023-05-10T16:04:03;18.70;58.10
7900;DHT22;3995;50.856;4.404;2023-05-10T16:06:32;18.70;58.00
7900;DHT22;3995;50.856;4.404;2023-05-10T16:08:59;18.70;58.30
7900;DHT22;3995;50.856;4.404;2023-05-10T16:11:27;18.70;58.60
7900;DHT22;3995;50.856;4.404;2023-05-10T16:13:54;18.70;58.90
7900;DHT22;3995;50.856;4.404;2023-05-10T16:16:22;18.70;59.00